sensor_id;sensor_type;location;lat;lon;timestamp;temperature;humidity
23755;DHT22;12057;52.042;6.830;2023-11-18T00:02:44;7.40;99.90
23755;DHT22;12057;52.042;6.830;2023-11-18T00:07:45;7.30;99.90
23755;DHT22;12057;52.042;6.830;2023-11-18T00:12:45;7.20;99.90
23755;DHT22;12057;52.042;6.830;2023-11-18T00:17:47;7.20;99.90
23755;DHT22;12057;52.042;6.830;2023-11-18T00:22:48;7.10;99.90
23755;DHT22;12057;52.042;6.830;2023-11-18T00:27:48;7.00;99.90
23755;DHT22;12057;52.042;6.830;2023-11-18T00:32:49;7.00;99.90
23755;DHT22;12057;52.042;6.830;2023-11-18T00:37:53;7.00;99.90
23755;DHT22;12057;52.042;6.830;2023-11-18T00:42:54;6.90;99.90
23755;DHT22;12057;52.042;6.830;2023-11-18T00:47:55;6.90;99.90
23755;DHT22;12057;52.042;6.830;2023-11-18T00:52:55;6.90;99.90
23755;DHT22;12057;52.042;6.830;2023-11-18T00:57:59;6.90;99.90
23755;DHT22;12057;52.042;6.830;2023-11-18T01:03:00;6.90;99.90
23755;DHT22;12057;52.042;6.830;2023-11-18T01:08:01;7.00;99.90
23755;DHT22;12057;52.042;6.830;2023-11-18T01:13:02;7.10;99.90
23755;DHT22;12057;52.042;6.830;2023-11-18T01:18:04;7.10;99.90
23755;DHT22;12057;52.042;6.830;2023-11-18T01:23:06;7.00;99.90
23755;DHT22;12057;52.042;6.830;2023-11-18T01:28:07;7.20;99.90
23755;DHT22;12057;52.042;6.830;2023-11-18T01:33:08;7.20;99.90
23755;DHT22;12057;52.042;6.830;2023-11-18T01:38:09;7.30;99.90
23755;DHT22;12057;52.042;6.830;2023-11-18T01:43:09;7.30;99.90
23755;DHT22;12057;52.042;6.830;2023-11-18T01:48:14;7.50;99.90
23755;DHT22;12057;52.042;6.830;2023-11-18T01:53:16;7.40;99.90
23755;DHT22;12057;52.042;6.830;2023-11-18T01:58:17;7.40;99.90
23755;DHT22;12057;52.042;6.830;2023-11-18T02:03:20;7.50;99.90
23755;DHT22;12057;52.042;6.830;2023-11-18T02:08:21;7.60;99.90
23755;DHT22;12057;52.042;6.830;2023-11-18T02:13:23;7.70;99.90
23755;DHT22;12057;52.042;6.830;2023-11-18T02:18:31;7.60;99.90
23755;DHT22;12057;52.042;6.830;2023-11-18T02:23:32;7.60;99.90
23755;DHT22;12057;52.042;6.830;2023-11-18T02:28:33;7.50;99.90
23755;DHT22;12057;52.042;6.830;2023-11-18T02:33:43;7.60;99.90
23755;DHT22;12057;52.042;6.830;2023-11-18T02:38:52;7.60;99.90
23755;DHT22;12057;52.042;6.830;2023-11-18T02:43:56;7.60;99.90
23755;DHT22;12057;52.042;6.830;2023-11-18T02:48:58;7.70;99.90
23755;DHT22;12057;52.042;6.830;2023-11-18T02:53:59;7.70;99.90
23755;DHT22;12057;52.042;6.830;2023-11-18T02:59:00;7.80;99.90
23755;DHT22;12057;52.042;6.830;2023-11-18T03:04:01;7.70;99.90
23755;DHT22;12057;52.042;6.830;2023-11-18T03:09:03;7.70;99.90
23755;DHT22;12057;52.042;6.830;2023-11-18T03:14:07;7.80;99.90
23755;DHT22;12057;52.042;6.830;2023-11-18T03:19:09;7.80;99.90
23755;DHT22;12057;52.042;6.830;2023-11-18T03:24:10;7.90;99.90
23755;DHT22;12057;52.042;6.830;2023-11-18T03:29:11;7.90;99.90
23755;DHT22;12057;52.042;6.830;2023-11-18T03:34:17;7.90;99.90
23755;DHT22;12057;52.042;6.830;2023-11-18T03:39:20;7.90;99.90
23755;DHT22;12057;52.042;6.830;2023-11-18T03:44:21;8.00;99.90
23755;DHT22;12057;52.042;6.830;2023-11-18T03:49:22;7.90;99.90
23755;DHT22;12057;52.042;6.830;2023-11-18T03:54:22;7.80;99.90
23755;DHT22;12057;52.042;6.830;2023-11-18T03:59:23;7.70;99.90
23755;DHT22;12057;52.042;6.830;2023-11-18T04:04:24;7.80;99.90
23755;DHT22;12057;52.042;6.830;2023-11-18T04:09:25;7.80;99.90
23755;DHT22;12057;52.042;6.830;2023-11-18T04:14:26;7.90;99.90
23755;DHT22;12057;52.042;6.830;2023-11-18T04:19:27;7.90;99.90
23755;DHT22;12057;52.042;6.830;2023-11-18T04:24:28;7.80;99.90
23755;DHT22;12057;52.042;6.830;2023-11-18T04:29:29;7.70;99.90
23755;DHT22;12057;52.042;6.830;2023-11-18T04:34:30;7.70;99.90
23755;DHT22;12057;52.042;6.830;2023-11-18T04:39:33;7.70;99.90
23755;DHT22;12057;52.042;6.830;2023-11-18T04:44:34;7.40;99.90
23755;DHT22;12057;52.042;6.830;2023-11-18T04:49:38;7.60;99.90
23755;DHT22;12057;52.042;6.830;2023-11-18T04:54:38;7.50;99.90
23755;DHT22;12057;52.042;6.830;2023-11-18T04:59:39;7.60;99.90
23755;DHT22;12057;52.042;6.830;2023-11-18T05:04:40;7.50;99.90
23755;DHT22;12057;52.042;6.830;2023-11-18T05:09:41;7.60;99.90
23755;DHT22;12057;52.042;6.830;2023-11-18T05:14:42;7.50;99.90
23755;DHT22;12057;52.042;6.830;2023-11-18T05:19:42;7.60;99.90
23755;DHT22;12057;52.042;6.830;2023-11-18T05:24:44;7.50;99.90
23755;DHT22;12057;52.042;6.830;2023-11-18T05:29:44;7.50;99.90
23755;DHT22;12057;52.042;6.830;2023-11-18T05:34:54;7.70;99.90
23755;DHT22;12057;52.042;6.830;2023-11-18T05:39:58;7.50;99.90
23755;DHT22;12057;52.042;6.830;2023-11-18T05:45:07;7.70;99.90
23755;DHT22;12057;52.042;6.830;2023-11-18T05:50:11;7.80;99.90
23755;DHT22;12057;52.042;6.830;2023-11-18T05:55:11;7.80;99.90
23755;DHT22;12057;52.042;6.830;2023-11-18T06:00:16;7.80;99.90
23755;DHT22;12057;52.042;6.830;2023-11-18T06:05:19;7.80;99.90
23755;DHT22;12057;52.042;6.830;2023-11-18T06:10:20;7.70;99.90
23755;DHT22;12057;52.042;6.830;2023-11-18T06:15:21;7.60;99.90
23755;DHT22;12057;52.042;6.830;2023-11-18T06:20:23;7.70;99.90
23755;DHT22;12057;52.042;6.830;2023-11-18T06:25:24;7.70;99.90
23755;DHT22;12057;52.042;6.830;2023-11-18T06:30:26;7.80;99.90
23755;DHT22;12057;52.042;6.830;2023-11-18T06:35:28;7.90;99.90
23755;DHT22;12057;52.042;6.830;2023-11-18T06:40:30;7.70;99.90
23755;DHT22;12057;52.042;6.830;2023-11-18T06:45:30;7.60;99.90
23755;DHT22;12057;52.042;6.830;2023-11-18T06:50:32;7.70;99.90
23755;DHT22;12057;52.042;6.830;2023-11-18T06:55:33;7.70;99.90
23755;DHT22;12057;52.042;6.830;2023-11-18T07:00:36;7.70;99.90
23755;DHT22;12057;52.042;6.830;2023-11-18T07:05:37;7.80;99.90
23755;DHT22;12057;52.042;6.830;2023-11-18T07:10:38;7.80;99.90
23755;DHT22;12057;52.042;6.830;2023-11-18T07:15:39;7.90;99.90
23755;DHT22;12057;52.042;6.830;2023-11-18T07:20:39;8.00;99.90
23755;DHT22;12057;52.042;6.830;2023-11-18T07:25:40;8.00;99.90
23755;DHT22;12057;52.042;6.830;2023-11-18T07:30:44;8.00;99.90
23755;DHT22;12057;52.042;6.830;2023-11-18T07:35:50;7.90;99.90
23755;DHT22;12057;52.042;6.830;2023-11-18T07:40:53;8.00;99.90
23755;DHT22;12057;52.042;6.830;2023-11-18T07:45:57;8.00;99.90
23755;DHT22;12057;52.042;6.830;2023-11-18T07:50:57;8.10;99.90
23755;DHT22;12057;52.042;6.830;2023-11-18T07:55:58;8.20;99.90
23755;DHT22;12057;52.042;6.830;2023-11-18T08:00:59;8.30;99.90
23755;DHT22;12057;52.042;6.830;2023-11-18T08:06:00;8.30;99.90
23755;DHT22;12057;52.042;6.830;2023-11-18T08:11:04;8.10;99.90
23755;DHT22;12057;52.042;6.830;2023-11-18T08:16:05;8.00;99.90
23755;DHT22;12057;52.042;6.830;2023-11-18T08:21:09;8.00;99.90
23755;DHT22;12057;52.042;6.830;2023-11-18T08:26:11;8.20;99.90
23755;DHT22;12057;52.042;6.830;2023-11-18T08:31:15;8.30;99.90
23755;DHT22;12057;52.042;6.830;2023-11-18T08:36:16;8.40;99.90
23755;DHT22;12057;52.042;6.830;2023-11-18T08:41:17;8.30;99.90
23755;DHT22;12057;52.042;6.830;2023-11-18T08:46:20;8.10;99.90
23755;DHT22;12057;52.042;6.830;2023-11-18T08:51:21;8.30;99.90
23755;DHT22;12057;52.042;6.830;2023-11-18T08:56:22;8.20;99.90
23755;DHT22;12057;52.042;6.830;2023-11-18T09:01:35;8.30;99.90
23755;DHT22;12057;52.042;6.830;2023-11-18T09:06:36;8.40;99.90
23755;DHT22;12057;52.042;6.830;2023-11-18T09:11:40;8.50;99.90
23755;DHT22;12057;52.042;6.830;2023-11-18T09:16:42;8.50;99.90
23755;DHT22;12057;52.042;6.830;2023-11-18T09:21:48;8.40;99.90
23755;DHT22;12057;52.042;6.830;2023-11-18T09:26:49;8.60;99.90
23755;DHT22;12057;52.042;6.830;2023-11-18T09:31:50;8.80;99.90
23755;DHT22;12057;52.042;6.830;2023-11-18T09:36:54;8.80;99.90
23755;DHT22;12057;52.042;6.830;2023-11-18T09:41:57;8.70;99.90
23755;DHT22;12057;52.042;6.830;2023-11-18T09:47:04;8.80;99.90
23755;DHT22;12057;52.042;6.830;2023-11-18T09:52:15;8.80;99.90
23755;DHT22;12057;52.042;6.830;2023-11-18T09:57:27;8.70;99.90
23755;DHT22;12057;52.042;6.830;2023-11-18T10:02:31;8.80;99.90
23755;DHT22;12057;52.042;6.830;2023-11-18T10:07:33;8.90;99.90
23755;DHT22;12057;52.042;6.830;2023-11-18T10:12:39;8.70;99.90
23755;DHT22;12057;52.042;6.830;2023-11-18T10:17:44;8.50;99.90
23755;DHT22;12057;52.042;6.830;2023-11-18T10:23:07;9.00;99.90
23755;DHT22;12057;52.042;6.830;2023-11-18T10:28:24;8.90;99.90
23755;DHT22;12057;52.042;6.830;2023-11-18T10:33:27;9.00;99.90
23755;DHT22;12057;52.042;6.830;2023-11-18T10:38:32;9.20;99.90
23755;DHT22;12057;52.042;6.830;2023-11-18T10:43:34;9.10;99.90
23755;DHT22;12057;52.042;6.830;2023-11-18T10:48:36;9.00;99.90
23755;DHT22;12057;52.042;6.830;2023-11-18T10:53:38;9.10;99.90
23755;DHT22;12057;52.042;6.830;2023-11-18T10:58:39;9.40;99.90
23755;DHT22;12057;52.042;6.830;2023-11-18T11:03:54;9.20;99.90
23755;DHT22;12057;52.042;6.830;2023-11-18T11:08:58;9.30;99.90
23755;DHT22;12057;52.042;6.830;2023-11-18T11:14:12;9.40;99.90
23755;DHT22;12057;52.042;6.830;2023-11-18T11:19:25;9.10;99.90
23755;DHT22;12057;52.042;6.830;2023-11-18T11:25:16;9.40;99.90
23755;DHT22;12057;52.042;6.830;2023-11-18T11:30:02;9.50;99.90
23755;DHT22;12057;52.042;6.830;2023-11-18T11:35:16;9.30;99.90
23755;DHT22;12057;52.042;6.830;2023-11-18T11:40:22;9.30;99.90
23755;DHT22;12057;52.042;6.830;2023-11-18T11:45:23;9.60;99.90
23755;DHT22;12057;52.042;6.830;2023-11-18T11:50:33;10.00;99.90
23755;DHT22;12057;52.042;6.830;2023-11-18T11:55:54;10.00;99.90
23755;DHT22;12057;52.042;6.830;2023-11-18T12:01:41;10.00;99.90
23755;DHT22;12057;52.042;6.830;2023-11-18T12:06:47;10.00;99.90
23755;DHT22;12057;52.042;6.830;2023-11-18T12:11:48;10.00;99.90
23755;DHT22;12057;52.042;6.830;2023-11-18T12:22:08;10.20;99.90
23755;DHT22;12057;52.042;6.830;2023-11-18T12:27:13;9.90;99.90
23755;DHT22;12057;52.042;6.830;2023-11-18T12:43:15;10.00;99.90
23755;DHT22;12057;52.042;6.830;2023-11-18T12:48:20;9.90;99.90
23755;DHT22;12057;52.042;6.830;2023-11-18T12:53:27;10.00;99.90
23755;DHT22;12057;52.042;6.830;2023-11-18T12:58:30;10.10;99.90
23755;DHT22;12057;52.042;6.830;2023-11-18T13:03:34;10.20;99.90
23755;DHT22;12057;52.042;6.830;2023-11-18T13:08:35;10.00;99.90
23755;DHT22;12057;52.042;6.830;2023-11-18T13:13:37;10.10;99.90
23755;DHT22;12057;52.042;6.830;2023-11-18T13:18:48;10.20;99.90
23755;DHT22;12057;52.042;6.830;2023-11-18T13:23:54;10.40;99.90
23755;DHT22;12057;52.042;6.830;2023-11-18T13:28:55;10.30;99.90
23755;DHT22;12057;52.042;6.830;2023-11-18T13:33:56;10.20;99.90
23755;DHT22;12057;52.042;6.830;2023-11-18T13:38:58;10.10;99.90
23755;DHT22;12057;52.042;6.830;2023-11-18T13:44:00;10.30;99.90
23755;DHT22;12057;52.042;6.830;2023-11-18T13:49:01;10.10;99.90
23755;DHT22;12057;52.042;6.830;2023-11-18T13:54:03;9.70;99.90
23755;DHT22;12057;52.042;6.830;2023-11-18T13:59:05;9.70;99.90
23755;DHT22;12057;52.042;6.830;2023-11-18T14:04:06;10.10;99.90
23755;DHT22;12057;52.042;6.830;2023-11-18T14:09:07;9.90;99.90
23755;DHT22;12057;52.042;6.830;2023-11-18T14:14:10;9.40;99.90
23755;DHT22;12057;52.042;6.830;2023-11-18T14:19:11;9.60;99.90
23755;DHT22;12057;52.042;6.830;2023-11-18T14:24:13;9.80;99.90
23755;DHT22;12057;52.042;6.830;2023-11-18T14:29:14;9.90;99.90
23755;DHT22;12057;52.042;6.830;2023-11-18T14:34:14;10.00;99.90
23755;DHT22;12057;52.042;6.830;2023-11-18T14:39:15;10.00;99.90
23755;DHT22;12057;52.042;6.830;2023-11-18T14:44:18;9.80;99.90
23755;DHT22;12057;52.042;6.830;2023-11-18T14:49:19;10.00;99.90
23755;DHT22;12057;52.042;6.830;2023-11-18T14:54:20;10.00;99.90
23755;DHT22;12057;52.042;6.830;2023-11-18T14:59:20;9.90;99.90
23755;DHT22;12057;52.042;6.830;2023-11-18T15:04:23;9.80;99.90
23755;DHT22;12057;52.042;6.830;2023-11-18T15:09:27;9.90;99.90
23755;DHT22;12057;52.042;6.830;2023-11-18T15:14:33;10.20;99.90
23755;DHT22;12057;52.042;6.830;2023-11-18T15:19:34;10.10;99.90
23755;DHT22;12057;52.042;6.830;2023-11-18T15:24:35;9.70;99.90
23755;DHT22;12057;52.042;6.830;2023-11-18T15:29:36;10.20;99.90
23755;DHT22;12057;52.042;6.830;2023-11-18T15:34:45;10.20;99.90
23755;DHT22;12057;52.042;6.830;2023-11-18T15:39:46;9.80;99.90
23755;DHT22;12057;52.042;6.830;2023-11-18T15:44:47;9.80;99.90
23755;DHT22;12057;52.042;6.830;2023-11-18T15:49:51;10.20;99.90
23755;DHT22;12057;52.042;6.830;2023-11-18T15:54:52;10.10;99.90
23755;DHT22;12057;52.042;6.830;2023-11-18T15:59:53;9.80;99.90
23755;DHT22;12057;52.042;6.830;2023-11-18T16:04:54;9.80;99.90
23755;DHT22;12057;52.042;6.830;2023-11-18T16:09:56;9.70;99.90
23755;DHT22;12057;52.042;6.830;2023-11-18T16:14:58;9.80;99.90
23755;DHT22;12057;52.042;6.830;2023-11-18T16:19:59;9.90;99.90
23755;DHT22;12057;52.042;6.830;2023-11-18T16:25:00;10.10;99.90
23755;DHT22;12057;52.042;6.830;2023-11-18T16:30:02;9.90;99.90
23755;DHT22;12057;52.042;6.830;2023-11-18T16:35:03;10.10;99.90
23755;DHT22;12057;52.042;6.830;2023-11-18T16:40:05;10.00;99.90
23755;DHT22;12057;52.042;6.830;2023-11-18T16:45:06;9.80;99.90
23755;DHT22;12057;52.042;6.830;2023-11-18T16:50:10;9.80;99.90
23755;DHT22;12057;52.042;6.830;2023-11-18T16:55:11;10.10;99.90
23755;DHT22;12057;52.042;6.830;2023-11-18T17:00:12;10.20;99.90
23755;DHT22;12057;52.042;6.830;2023-11-18T17:05:19;10.00;99.90
23755;DHT22;12057;52.042;6.830;2023-11-18T17:10:21;10.00;99.90
23755;DHT22;12057;52.042;6.830;2023-11-18T17:15:23;10.20;99.90
23755;DHT22;12057;52.042;6.830;2023-11-18T17:20:24;10.10;99.90
23755;DHT22;12057;52.042;6.830;2023-11-18T17:25:27;10.30;99.90
23755;DHT22;12057;52.042;6.830;2023-11-18T17:30:29;10.10;99.90
23755;DHT22;12057;52.042;6.830;2023-11-18T17:35:35;10.20;99.90
23755;DHT22;12057;52.042;6.830;2023-11-18T17:40:35;10.40;99.90
23755;DHT22;12057;52.042;6.830;2023-11-18T17:45:36;10.60;99.90
23755;DHT22;12057;52.042;6.830;2023-11-18T17:50:37;10.70;99.90
23755;DHT22;12057;52.042;6.830;2023-11-18T17:55:38;10.80;99.90
23755;DHT22;12057;52.042;6.830;2023-11-18T18:00:39;11.00;99.90
23755;DHT22;12057;52.042;6.830;2023-11-18T18:05:39;10.60;99.90
23755;DHT22;12057;52.042;6.830;2023-11-18T18:10:41;10.70;99.90
23755;DHT22;12057;52.042;6.830;2023-11-18T18:15:41;10.80;99.90
23755;DHT22;12057;52.042;6.830;2023-11-18T18:20:42;11.00;99.90
23755;DHT22;12057;52.042;6.830;2023-11-18T18:25:48;11.20;99.90
23755;DHT22;12057;52.042;6.830;2023-11-18T18:30:49;11.10;99.90
23755;DHT22;12057;52.042;6.830;2023-11-18T18:35:50;11.20;99.90
23755;DHT22;12057;52.042;6.830;2023-11-18T18:40:51;11.50;99.90
23755;DHT22;12057;52.042;6.830;2023-11-18T18:45:58;11.20;99.90
23755;DHT22;12057;52.042;6.830;2023-11-18T18:51:02;11.50;99.90
23755;DHT22;12057;52.042;6.830;2023-11-18T18:56:04;11.40;99.90
23755;DHT22;12057;52.042;6.830;2023-11-18T19:01:09;11.20;99.90
23755;DHT22;12057;52.042;6.830;2023-11-18T19:06:12;11.30;99.90
23755;DHT22;12057;52.042;6.830;2023-11-18T19:11:13;11.40;99.90
23755;DHT22;12057;52.042;6.830;2023-11-18T19:16:15;11.40;99.90
23755;DHT22;12057;52.042;6.830;2023-11-18T19:21:16;11.50;99.90
23755;DHT22;12057;52.042;6.830;2023-11-18T19:26:17;11.50;99.90
23755;DHT22;12057;52.042;6.830;2023-11-18T19:31:18;11.60;99.90
23755;DHT22;12057;52.042;6.830;2023-11-18T19:36:19;11.40;99.90
23755;DHT22;12057;52.042;6.830;2023-11-18T19:41:19;11.60;99.90
23755;DHT22;12057;52.042;6.830;2023-11-18T19:46:20;11.80;99.90
23755;DHT22;12057;52.042;6.830;2023-11-18T19:51:21;11.80;99.90
23755;DHT22;12057;52.042;6.830;2023-11-18T19:56:22;11.60;99.90
23755;DHT22;12057;52.042;6.830;2023-11-18T20:01:23;11.90;99.90
23755;DHT22;12057;52.042;6.830;2023-11-18T20:06:25;12.10;99.90
23755;DHT22;12057;52.042;6.830;2023-11-18T20:11:26;12.10;99.90
23755;DHT22;12057;52.042;6.830;2023-11-18T20:16:27;11.90;99.90
23755;DHT22;12057;52.042;6.830;2023-11-18T20:21:29;12.20;99.90
23755;DHT22;12057;52.042;6.830;2023-11-18T20:26:29;12.10;99.90
23755;DHT22;12057;52.042;6.830;2023-11-18T20:31:30;12.00;99.90
23755;DHT22;12057;52.042;6.830;2023-11-18T20:36:31;12.10;99.90
23755;DHT22;12057;52.042;6.830;2023-11-18T20:41:35;12.30;99.90
23755;DHT22;12057;52.042;6.830;2023-11-18T20:46:36;12.40;99.90
23755;DHT22;12057;52.042;6.830;2023-11-18T20:51:37;12.50;99.90
23755;DHT22;12057;52.042;6.830;2023-11-18T20:56:38;12.50;99.90
23755;DHT22;12057;52.042;6.830;2023-11-18T21:01:39;12.70;99.90
23755;DHT22;12057;52.042;6.830;2023-11-18T21:06:39;12.70;99.90
23755;DHT22;12057;52.042;6.830;2023-11-18T21:11:40;12.60;99.90
23755;DHT22;12057;52.042;6.830;2023-11-18T21:16:41;12.80;99.90
23755;DHT22;12057;52.042;6.830;2023-11-18T21:21:42;12.90;99.90
23755;DHT22;12057;52.042;6.830;2023-11-18T21:26:42;13.00;99.90
23755;DHT22;12057;52.042;6.830;2023-11-18T21:31:43;13.00;99.90
23755;DHT22;12057;52.042;6.830;2023-11-18T21:36:44;13.20;99.90
23755;DHT22;12057;52.042;6.830;2023-11-18T21:41:45;12.80;99.90
23755;DHT22;12057;52.042;6.830;2023-11-18T21:46:46;13.00;99.90
23755;DHT22;12057;52.042;6.830;2023-11-18T21:51:46;13.40;99.90
23755;DHT22;12057;52.042;6.830;2023-11-18T21:56:47;13.30;99.90
23755;DHT22;12057;52.042;6.830;2023-11-18T22:01:48;12.80;99.90
23755;DHT22;12057;52.042;6.830;2023-11-18T22:06:49;13.30;99.90
23755;DHT22;12057;52.042;6.830;2023-11-18T22:11:50;13.60;99.90
23755;DHT22;12057;52.042;6.830;2023-11-18T22:16:51;13.50;99.90
23755;DHT22;12057;52.042;6.830;2023-11-18T22:21:52;13.40;99.90
23755;DHT22;12057;52.042;6.830;2023-11-18T22:26:53;13.50;99.90
23755;DHT22;12057;52.042;6.830;2023-11-18T22:31:53;13.70;99.90
23755;DHT22;12057;52.042;6.830;2023-11-18T22:36:55;13.90;99.90
23755;DHT22;12057;52.042;6.830;2023-11-18T22:41:56;13.80;99.90
23755;DHT22;12057;52.042;6.830;2023-11-18T22:46:57;13.80;99.90
23755;DHT22;12057;52.042;6.830;2023-11-18T22:52:00;13.80;99.90
23755;DHT22;12057;52.042;6.830;2023-11-18T22:57:01;13.90;99.90
23755;DHT22;12057;52.042;6.830;2023-11-18T23:02:04;13.90;99.90
23755;DHT22;12057;52.042;6.830;2023-11-18T23:07:04;14.00;99.90
23755;DHT22;12057;52.042;6.830;2023-11-18T23:12:06;14.10;99.90
23755;DHT22;12057;52.042;6.830;2023-11-18T23:17:06;14.20;99.90
23755;DHT22;12057;52.042;6.830;2023-11-18T23:22:09;14.20;99.90
23755;DHT22;12057;52.042;6.830;2023-11-18T23:27:11;14.40;99.90
23755;DHT22;12057;52.042;6.830;2023-11-18T23:32:12;14.60;99.90
23755;DHT22;12057;52.042;6.830;2023-11-18T23:37:13;14.70;99.90
23755;DHT22;12057;52.042;6.830;2023-11-18T23:42:13;14.60;99.90
23755;DHT22;12057;52.042;6.830;2023-11-18T23:47:14;14.80;99.90
23755;DHT22;12057;52.042;6.830;2023-11-18T23:52:15;14.70;99.90
23755;DHT22;12057;52.042;6.830;2023-11-18T23:57:16;15.00;99.90
